createdAt,value
2018-06-12T00:00:55.110Z,0
2018-06-12T00:01:54.593Z,0
2018-06-12T00:02:54.839Z,0
2018-06-12T00:03:54.851Z,0
2018-06-12T00:04:55.152Z,0
2018-06-12T00:05:54.568Z,0
2018-06-12T00:06:54.560Z,0
2018-06-12T00:07:55.069Z,0
2018-06-12T00:08:55.071Z,0
2018-06-12T00:09:55.056Z,0
2018-06-12T00:10:54.538Z,0
2018-06-12T00:11:54.781Z,0
2018-06-12T00:12:54.524Z,0
2018-06-12T00:13:55.029Z,0
2018-06-12T00:14:54.770Z,0
2018-06-12T00:15:55.017Z,0
2018-06-12T00:16:55.013Z,0
2018-06-12T00:17:54.746Z,0
2018-06-12T00:18:54.743Z,0
2018-06-12T00:19:54.749Z,0
2018-06-12T00:20:54.730Z,0
2018-06-12T00:21:54.724Z,0
2018-06-12T00:22:54.725Z,0
2018-06-12T00:23:54.720Z,0
2018-06-12T00:24:54.460Z,0
2018-06-12T00:25:54.954Z,0
2018-06-12T00:26:54.949Z,0
2018-06-12T00:27:54.941Z,0
2018-06-12T00:28:54.683Z,0
2018-06-12T00:29:54.680Z,0
2018-06-12T00:30:54.417Z,0
2018-06-12T00:31:54.417Z,0
2018-06-12T00:32:54.918Z,0
2018-06-12T00:33:54.915Z,0
2018-06-12T00:34:54.402Z,0
2018-06-12T00:35:54.647Z,0
2018-06-12T00:36:54.632Z,0
2018-06-12T00:37:54.626Z,0
2018-06-12T00:38:54.370Z,0
2018-06-12T00:39:54.883Z,0
2018-06-12T00:40:54.608Z,0
2018-06-12T00:41:54.348Z,0
2018-06-12T00:42:54.857Z,0
2018-06-12T00:43:54.600Z,0
2018-06-12T00:44:54.587Z,0
2018-06-12T00:45:54.068Z,0
2018-06-12T00:46:54.840Z,0
2018-06-12T00:47:54.829Z,0
2018-06-12T00:48:54.564Z,0
2018-06-12T00:49:54.556Z,0
2018-06-12T00:50:54.556Z,0
2018-06-12T00:51:54.799Z,0
2018-06-12T00:52:54.566Z,0
2018-06-12T00:53:54.532Z,0
2018-06-12T00:54:54.532Z,0
2018-06-12T00:55:54.523Z,0
2018-06-12T00:56:54.779Z,0
2018-06-12T00:57:54.766Z,0
2018-06-12T00:58:54.765Z,0
2018-06-12T00:59:54.762Z,0
2018-06-12T01:00:54.235Z,0
2018-06-12T01:01:54.486Z,0
2018-06-12T01:02:54.489Z,0
2018-06-12T01:03:54.473Z,0
2018-06-12T01:04:54.467Z,0
2018-06-12T01:05:54.732Z,0
2018-06-12T01:06:54.201Z,0
2018-06-12T01:07:54.710Z,0
2018-06-12T01:08:54.494Z,0
2018-06-12T01:09:54.689Z,0
2018-06-12T01:10:54.431Z,0
2018-06-12T01:11:54.425Z,0
2018-06-12T01:12:54.423Z,0
2018-06-12T01:13:54.410Z,0
2018-06-12T01:14:54.678Z,0
2018-06-12T01:15:54.659Z,0
2018-06-12T01:16:54.655Z,0
2018-06-12T01:17:54.392Z,0
2018-06-12T01:18:54.638Z,0
2018-06-12T01:19:54.639Z,0
2018-06-12T01:20:54.627Z,0
2018-06-12T01:21:54.630Z,0
2018-06-12T01:22:54.368Z,0
2018-06-12T01:23:54.617Z,0
2018-06-12T01:24:54.611Z,0
2018-06-12T01:25:54.600Z,0
2018-06-12T01:26:54.341Z,0
2018-06-12T01:27:54.595Z,0
2018-06-12T01:28:54.071Z,0
2018-06-12T01:29:54.583Z,0
2018-06-12T01:31:36.255Z,0
2018-06-12T01:32:36.772Z,0
2018-06-12T01:33:36.758Z,0
2018-06-12T01:34:36.759Z,0
2018-06-12T01:35:36.998Z,0
2018-06-12T01:36:37.004Z,0
2018-06-12T01:37:36.736Z,0
2018-06-12T01:38:36.725Z,0
2018-06-12T01:39:36.742Z,0
2018-06-12T01:40:36.719Z,0
2018-06-12T01:41:36.966Z,0
2018-06-12T01:42:36.456Z,0
2018-06-12T01:43:36.963Z,0
2018-06-12T01:44:36.694Z,0
2018-06-12T01:45:36.949Z,0
2018-06-12T01:46:36.945Z,0
2018-06-12T01:47:36.421Z,0
2018-06-12T01:48:36.420Z,0
2018-06-12T01:49:36.921Z,0
2018-06-12T01:50:36.921Z,0
2018-06-12T01:51:36.908Z,0
2018-06-12T01:52:36.904Z,0
2018-06-12T01:53:36.897Z,0
2018-06-12T01:54:36.894Z,0
2018-06-12T01:55:36.887Z,0
2018-06-12T01:56:36.627Z,0
2018-06-12T01:57:36.884Z,0
2018-06-12T01:58:36.356Z,0
2018-06-12T01:59:36.866Z,0
2018-06-12T02:00:36.600Z,0
2018-06-12T02:01:36.857Z,0
2018-06-12T02:02:36.853Z,0
2018-06-12T02:03:36.382Z,0
2018-06-12T02:04:36.835Z,0
2018-06-12T02:05:36.837Z,0
2018-06-12T02:06:35.803Z,0
2018-06-12T02:07:36.564Z,0
2018-06-12T02:08:36.554Z,0
2018-06-12T02:09:36.556Z,0
2018-06-12T02:10:36.287Z,0
2018-06-12T02:11:36.540Z,0
2018-06-12T02:12:36.791Z,0
2018-06-12T02:13:36.779Z,0
2018-06-12T02:14:36.770Z,0
2018-06-12T02:15:36.777Z,0
2018-06-12T02:16:36.767Z,0
2018-06-12T02:17:36.503Z,0
2018-06-12T02:18:36.751Z,0
2018-06-12T02:19:36.769Z,0
2018-06-12T02:20:36.744Z,0
2018-06-12T02:21:36.480Z,0
2018-06-12T02:22:36.216Z,0
2018-06-12T02:23:36.469Z,0
2018-06-12T02:24:36.725Z,0
2018-06-12T02:25:36.451Z,0
2018-06-12T02:26:36.707Z,0
2018-06-12T02:27:36.195Z,0
2018-06-12T02:28:36.696Z,0
2018-06-12T02:29:36.427Z,0
2018-06-12T02:30:36.440Z,0
2018-06-12T02:31:36.431Z,0
2018-06-12T02:32:36.408Z,0
2018-06-12T02:33:36.411Z,0
2018-06-12T02:34:36.404Z,0
2018-06-12T02:35:36.155Z,0
2018-06-12T02:36:36.652Z,0
2018-06-12T02:37:36.643Z,0
2018-06-12T02:38:36.636Z,0
2018-06-12T02:39:36.632Z,0
2018-06-12T02:40:36.363Z,0
2018-06-12T02:41:36.626Z,0
2018-06-12T02:42:36.108Z,0
2018-06-12T02:43:36.346Z,0
2018-06-12T02:44:36.808Z,0
2018-06-12T02:45:36.612Z,0
2018-06-12T02:46:36.607Z,0
2018-06-12T02:47:36.068Z,0
2018-06-12T02:48:36.331Z,0
2018-06-12T02:49:36.314Z,0
2018-06-12T02:50:36.588Z,0
2018-06-12T02:51:36.302Z,0
2018-06-12T02:52:36.557Z,0
2018-06-12T02:53:36.557Z,0
2018-06-12T02:54:36.598Z,0
2018-06-12T02:55:36.276Z,0
2018-06-12T02:56:36.273Z,0
2018-06-12T02:57:36.272Z,0
2018-06-12T02:58:36.517Z,0
2018-06-12T02:59:36.265Z,0
2018-06-12T03:00:35.737Z,0
2018-06-12T03:01:36.511Z,0
2018-06-12T03:02:36.241Z,0
2018-06-12T03:03:36.229Z,0
2018-06-12T03:04:36.483Z,0
2018-06-12T03:05:36.516Z,0
2018-06-12T03:06:36.492Z,0
2018-06-12T03:07:36.474Z,0
2018-06-12T03:08:36.209Z,0
2018-06-12T03:09:36.200Z,0
2018-06-12T03:10:36.448Z,0
2018-06-12T03:11:35.937Z,0
2018-06-12T03:12:36.175Z,0
2018-06-12T03:13:35.916Z,0
2018-06-12T03:14:36.435Z,0
2018-06-12T03:15:36.162Z,0
2018-06-12T03:16:36.167Z,0
2018-06-12T03:17:36.153Z,0
2018-06-12T03:18:36.405Z,0
2018-06-12T03:19:36.397Z,0
2018-06-12T03:20:35.873Z,0
2018-06-12T03:21:36.388Z,0
2018-06-12T03:22:36.117Z,0
2018-06-12T03:23:36.124Z,0
2018-06-12T03:24:36.108Z,5
2018-06-12T03:25:35.852Z,5
2018-06-12T03:26:36.099Z,5
2018-06-12T03:27:36.093Z,5
2018-06-12T03:28:36.337Z,5
2018-06-12T03:29:35.834Z,5
2018-06-12T03:30:36.345Z,5
2018-06-12T03:31:36.069Z,5
2018-06-12T03:32:36.318Z,10
2018-06-12T03:33:36.312Z,10
2018-06-12T03:34:35.793Z,10
2018-06-12T03:35:36.307Z,10
2018-06-12T03:36:36.036Z,10
2018-06-12T03:37:35.777Z,10
2018-06-12T03:38:36.278Z,10
2018-06-12T03:39:36.281Z,15
2018-06-12T03:40:36.298Z,15
2018-06-12T03:41:35.756Z,15
2018-06-12T03:42:36.257Z,15
2018-06-12T03:43:36.257Z,15
2018-06-12T03:44:35.990Z,20
2018-06-12T03:45:35.980Z,20
2018-06-12T03:46:35.970Z,20
2018-06-12T03:47:35.716Z,20
2018-06-12T03:48:36.222Z,20
2018-06-12T03:49:35.956Z,20
2018-06-12T03:50:36.220Z,20
2018-06-12T03:51:36.200Z,20
2018-06-12T03:52:35.951Z,20
2018-06-12T03:53:36.188Z,20
2018-06-12T03:54:35.671Z,20
2018-06-12T03:55:36.181Z,25
2018-06-12T03:56:36.174Z,25
2018-06-12T03:57:36.345Z,25
2018-06-12T03:58:36.170Z,30
2018-06-12T03:59:35.910Z,30
2018-06-12T04:00:35.935Z,30
2018-06-12T04:01:36.144Z,30
2018-06-12T04:02:35.623Z,35
2018-06-12T04:03:35.621Z,35
2018-06-12T04:04:35.613Z,40
2018-06-12T04:05:35.860Z,45
2018-06-12T04:06:35.863Z,50
2018-06-12T04:07:36.191Z,50
2018-06-12T04:08:36.104Z,55
2018-06-12T04:09:35.908Z,55
2018-06-12T04:10:35.850Z,60
2018-06-12T04:11:36.086Z,60
2018-06-12T04:12:36.080Z,60
2018-06-12T04:13:35.814Z,60
2018-06-12T04:14:35.036Z,60
2018-06-12T04:15:35.809Z,60
2018-06-12T04:16:35.797Z,60
2018-06-12T04:17:35.790Z,60
2018-06-12T04:18:35.775Z,60
2018-06-12T04:19:35.264Z,65
2018-06-12T04:20:36.073Z,65
2018-06-12T04:21:35.765Z,65
2018-06-12T04:22:36.019Z,65
2018-06-12T04:23:36.003Z,70
2018-06-12T04:24:35.750Z,70
2018-06-12T04:25:35.743Z,70
2018-06-12T04:26:35.220Z,70
2018-06-12T04:27:35.473Z,70
2018-06-12T04:28:36.033Z,65
2018-06-12T04:29:35.712Z,60
2018-06-12T04:30:35.983Z,55
2018-06-12T04:31:35.450Z,55
2018-06-12T04:32:35.708Z,50
2018-06-12T04:33:35.952Z,50
2018-06-12T04:34:35.701Z,45
2018-06-12T04:35:35.955Z,45
2018-06-12T04:36:35.421Z,45
2018-06-12T04:37:35.677Z,45
2018-06-12T04:38:35.667Z,45
2018-06-12T04:39:35.662Z,50
2018-06-12T04:40:35.915Z,55
2018-06-12T04:41:35.655Z,60
2018-06-12T04:42:35.901Z,60
2018-06-12T04:43:36.002Z,55
2018-06-12T04:44:35.891Z,55
2018-06-12T04:45:35.890Z,55
2018-06-12T04:46:35.630Z,50
2018-06-12T04:47:35.617Z,50
2018-06-12T04:48:35.370Z,60
2018-06-12T04:49:35.870Z,60
2018-06-12T04:50:35.602Z,65
2018-06-12T04:51:35.338Z,65
2018-06-12T04:52:35.846Z,60
2018-06-12T04:53:35.842Z,60
2018-06-12T04:54:35.383Z,60
2018-06-12T04:55:35.836Z,55
2018-06-12T04:56:35.569Z,55
2018-06-12T04:57:35.303Z,55
2018-06-12T04:58:35.813Z,50
2018-06-12T04:59:35.296Z,55
2018-06-12T05:00:35.802Z,55
2018-06-12T05:01:35.549Z,50
2018-06-12T05:02:35.544Z,45
2018-06-12T05:03:35.271Z,40
2018-06-12T05:04:35.528Z,50
2018-06-12T05:05:35.519Z,60
2018-06-12T05:06:35.514Z,70
2018-06-12T05:07:35.250Z,70
2018-06-12T05:08:35.501Z,75
2018-06-12T05:09:34.991Z,80
2018-06-12T05:10:35.941Z,80
2018-06-12T05:11:35.481Z,70
2018-06-12T05:12:35.489Z,70
2018-06-12T05:13:35.220Z,70
2018-06-12T05:14:35.471Z,75
2018-06-12T05:15:35.210Z,85
2018-06-12T05:16:35.717Z,85
2018-06-12T05:17:35.744Z,90
2018-06-12T05:18:35.442Z,85
2018-06-12T05:19:35.760Z,80
2018-06-12T05:20:35.183Z,70
2018-06-12T05:21:35.693Z,70
2018-06-12T05:22:35.679Z,80
2018-06-12T05:23:35.682Z,105
2018-06-12T05:24:35.416Z,120
2018-06-12T05:25:35.263Z,130
2018-06-12T05:26:35.153Z,115
2018-06-12T05:27:35.404Z,90
2018-06-12T05:28:35.652Z,95
2018-06-12T05:29:35.654Z,80
2018-06-12T05:30:35.126Z,80
2018-06-12T05:31:35.395Z,95
2018-06-12T05:32:35.636Z,105
2018-06-12T05:33:34.855Z,145
2018-06-12T05:34:35.618Z,155
2018-06-12T05:35:35.354Z,145
2018-06-12T05:36:34.844Z,145
2018-06-12T05:37:35.347Z,140
2018-06-12T05:38:35.341Z,135
2018-06-12T05:39:35.335Z,125
2018-06-12T05:40:35.339Z,130
2018-06-12T05:41:35.323Z,115
2018-06-12T05:42:35.578Z,105
2018-06-12T05:43:35.577Z,95
2018-06-12T05:44:35.046Z,85
2018-06-12T05:45:35.052Z,90
2018-06-12T05:46:35.560Z,80
2018-06-12T05:47:35.553Z,90
2018-06-12T05:48:35.294Z,115
2018-06-12T05:49:35.284Z,115
2018-06-12T05:50:35.541Z,110
2018-06-12T05:51:35.526Z,125
2018-06-12T05:52:35.265Z,135
2018-06-12T05:53:35.526Z,115
2018-06-12T05:54:35.253Z,115
2018-06-12T05:55:35.249Z,105
2018-06-12T05:56:35.249Z,110
2018-06-12T05:57:35.490Z,120
2018-06-12T05:58:35.527Z,125
2018-06-12T05:59:35.480Z,105
2018-06-12T06:00:35.533Z,115
2018-06-12T06:01:35.488Z,100
2018-06-12T06:02:35.480Z,105
2018-06-12T06:03:35.469Z,100
2018-06-12T06:04:35.244Z,85
2018-06-12T06:05:35.200Z,70
2018-06-12T06:06:35.194Z,70
2018-06-12T06:07:35.438Z,85
2018-06-12T06:08:35.174Z,85
2018-06-12T06:09:35.169Z,85
2018-06-12T06:10:35.216Z,105
2018-06-12T06:11:34.905Z,125
2018-06-12T06:12:35.165Z,130
2018-06-12T06:13:35.195Z,160
2018-06-12T06:14:35.139Z,165
2018-06-12T06:15:34.885Z,150
2018-06-12T06:16:35.137Z,130
2018-06-12T06:17:35.134Z,110
2018-06-12T06:18:35.387Z,115
2018-06-12T06:19:35.115Z,105
2018-06-12T06:20:35.108Z,100
2018-06-12T06:21:34.903Z,105
2018-06-12T06:22:35.694Z,110
2018-06-12T06:23:35.354Z,110
2018-06-12T06:24:35.092Z,115
2018-06-12T06:25:35.332Z,125
2018-06-12T06:26:35.333Z,125
2018-06-12T06:27:35.087Z,120
2018-06-12T06:28:34.807Z,120
2018-06-12T06:29:35.056Z,115
2018-06-12T06:30:35.052Z,125
2018-06-12T06:31:35.311Z,120
2018-06-12T06:32:35.038Z,125
2018-06-12T06:33:35.035Z,115
2018-06-12T06:34:35.030Z,130
2018-06-12T06:35:35.288Z,135
2018-06-12T06:36:34.767Z,150
2018-06-12T06:37:35.015Z,140
2018-06-12T06:38:35.267Z,140
2018-06-12T06:39:34.737Z,155
2018-06-12T06:40:35.251Z,180
2018-06-12T06:41:35.003Z,180
2018-06-12T06:42:34.988Z,170
2018-06-12T06:43:35.237Z,170
2018-06-12T06:44:35.235Z,160
2018-06-12T06:45:35.230Z,160
2018-06-12T06:46:34.958Z,165
2018-06-12T06:47:34.971Z,160
2018-06-12T06:48:35.208Z,150
2018-06-12T06:49:34.430Z,150
2018-06-12T06:50:35.201Z,165
2018-06-12T06:51:34.676Z,175
2018-06-12T06:52:34.926Z,200
2018-06-12T06:53:35.335Z,215
2018-06-12T06:54:34.915Z,220
2018-06-12T06:55:35.171Z,230
2018-06-12T06:56:34.905Z,215
2018-06-12T06:57:34.649Z,210
2018-06-12T06:58:34.896Z,210
2018-06-12T06:59:35.144Z,225
2018-06-12T07:00:34.632Z,245
2018-06-12T07:01:34.878Z,265
2018-06-12T07:02:34.872Z,270
2018-06-12T07:03:35.123Z,280
2018-06-12T07:04:34.857Z,270
2018-06-12T07:05:34.864Z,265
2018-06-12T07:06:35.112Z,275
2018-06-12T07:07:35.104Z,270
2018-06-12T07:08:34.584Z,265
2018-06-12T07:09:35.102Z,265
2018-06-12T07:10:34.835Z,260
2018-06-12T07:11:35.086Z,245
2018-06-12T07:12:34.562Z,255
2018-06-12T07:13:34.815Z,255
2018-06-12T07:14:34.554Z,285
2018-06-12T07:15:34.819Z,300
2018-06-12T07:16:34.836Z,310
2018-06-12T07:17:35.063Z,310
2018-06-12T07:18:35.049Z,305
2018-06-12T07:19:35.038Z,305
2018-06-12T07:20:35.037Z,315
2018-06-12T07:21:34.527Z,325
2018-06-12T07:22:34.513Z,330
2018-06-12T07:23:34.768Z,305
2018-06-12T07:24:34.761Z,290
2018-06-12T07:25:34.506Z,265
2018-06-12T07:26:34.245Z,245
2018-06-12T07:27:35.015Z,215
2018-06-12T07:28:34.744Z,235
2018-06-12T07:29:34.741Z,250
2018-06-12T07:30:34.734Z,260
2018-06-12T07:31:34.994Z,255
2018-06-12T07:32:34.994Z,235
2018-06-12T07:33:34.514Z,255
2018-06-12T07:34:34.980Z,265
2018-06-12T07:35:34.972Z,260
2018-06-12T07:36:34.709Z,260
2018-06-12T07:37:35.012Z,200
2018-06-12T07:38:34.958Z,215
2018-06-12T07:39:34.440Z,210
2018-06-12T07:40:34.177Z,190
2018-06-12T07:41:34.685Z,165
2018-06-12T07:42:34.950Z,140
2018-06-12T07:43:34.580Z,135
2018-06-12T07:44:34.429Z,125
2018-06-12T07:45:34.416Z,120
2018-06-12T07:46:34.680Z,120
2018-06-12T07:47:34.923Z,135
2018-06-12T07:48:34.663Z,150
2018-06-12T07:49:34.652Z,175
2018-06-12T07:50:34.909Z,195
2018-06-12T07:51:34.401Z,190
2018-06-12T07:52:34.640Z,190
2018-06-12T07:53:34.899Z,185
2018-06-12T07:54:34.628Z,190
2018-06-12T07:55:34.883Z,225
2018-06-12T07:56:34.878Z,270
2018-06-12T07:57:34.868Z,285
2018-06-12T07:58:34.613Z,280
2018-06-12T07:59:34.095Z,290
2018-06-12T08:00:34.880Z,270
2018-06-12T08:01:34.597Z,230
2018-06-12T08:02:34.856Z,220
2018-06-12T08:03:34.851Z,230
2018-06-12T08:04:34.590Z,250
2018-06-12T08:05:34.327Z,235
2018-06-12T08:06:34.579Z,230
2018-06-12T08:07:34.572Z,235
2018-06-12T08:08:34.566Z,240
2018-06-12T08:09:34.303Z,235
2018-06-12T08:10:34.558Z,230
2018-06-12T08:11:34.815Z,245
2018-06-12T08:12:34.547Z,300
2018-06-12T08:13:34.292Z,350
2018-06-12T08:14:34.546Z,335
2018-06-12T08:15:34.790Z,360
2018-06-12T08:16:34.788Z,390
2018-06-12T08:17:34.788Z,430
2018-06-12T08:18:34.865Z,430
2018-06-12T08:19:34.519Z,425
2018-06-12T08:20:34.514Z,430
2018-06-12T08:21:34.767Z,420
2018-06-12T08:22:34.506Z,415
2018-06-12T08:23:34.500Z,365
2018-06-12T08:24:34.495Z,360
2018-06-12T08:25:34.756Z,375
2018-06-12T08:26:34.760Z,380
2018-06-12T08:27:34.229Z,360
2018-06-12T08:28:34.739Z,445
2018-06-12T08:29:34.540Z,495
2018-06-12T08:30:34.896Z,445
2018-06-12T08:31:34.726Z,355
2018-06-12T08:32:34.734Z,330
2018-06-12T08:33:34.468Z,375
2018-06-12T08:34:34.711Z,345
2018-06-12T08:35:34.327Z,300
2018-06-12T08:36:34.207Z,300
2018-06-12T08:37:34.701Z,330
2018-06-12T08:38:34.188Z,360
2018-06-12T08:39:34.696Z,325
2018-06-12T08:40:34.698Z,345
2018-06-12T08:41:34.434Z,375
2018-06-12T08:42:34.431Z,365
2018-06-12T08:43:34.428Z,380
2018-06-12T08:44:34.168Z,350
2018-06-12T08:45:34.430Z,335
2018-06-12T08:46:34.936Z,300
2018-06-12T08:47:34.670Z,275
2018-06-12T08:48:34.675Z,300
2018-06-12T08:49:34.406Z,340
2018-06-12T08:50:34.149Z,315
2018-06-12T08:51:34.662Z,270
2018-06-12T08:52:33.883Z,245
2018-06-12T08:53:34.650Z,255
2018-06-12T08:54:34.655Z,225
2018-06-12T08:55:34.129Z,230
2018-06-12T08:56:34.407Z,250
2018-06-12T08:57:34.637Z,240
2018-06-12T08:58:34.630Z,290
2018-06-12T08:59:34.123Z,315
2018-06-12T09:00:34.633Z,340
2018-06-12T09:01:34.368Z,360
2018-06-12T09:02:34.637Z,390
2018-06-12T09:03:34.361Z,390
2018-06-12T09:04:34.355Z,370
2018-06-12T09:05:34.098Z,330
2018-06-12T09:06:34.605Z,245
2018-06-12T09:07:34.345Z,210
2018-06-12T09:08:34.090Z,175
2018-06-12T09:09:34.621Z,145
2018-06-12T09:10:34.080Z,145
2018-06-12T09:11:34.596Z,130
2018-06-12T09:12:34.342Z,130
2018-06-12T09:13:34.083Z,145
2018-06-12T09:14:34.576Z,155
2018-06-12T09:15:34.584Z,170
2018-06-12T09:16:34.571Z,170
2018-06-12T09:17:34.304Z,170
2018-06-12T09:18:34.613Z,185
2018-06-12T09:19:34.297Z,225
2018-06-12T09:20:34.556Z,280
2018-06-12T09:21:34.300Z,370
2018-06-12T09:22:34.031Z,430
2018-06-12T09:23:34.541Z,500
2018-06-12T09:24:34.278Z,555
2018-06-12T09:25:34.537Z,565
2018-06-12T09:26:34.278Z,555
2018-06-12T09:27:34.030Z,535
2018-06-12T09:28:34.528Z,535
2018-06-12T09:29:34.526Z,535
2018-06-12T09:30:34.268Z,445
2018-06-12T09:31:34.509Z,415
2018-06-12T09:32:34.511Z,355
2018-06-12T09:33:34.507Z,285
2018-06-12T09:34:34.536Z,255
2018-06-12T09:35:34.514Z,245
2018-06-12T09:36:33.729Z,225
2018-06-12T09:37:34.240Z,225
2018-06-12T09:38:34.489Z,240
2018-06-12T09:39:34.231Z,255
2018-06-12T09:40:34.228Z,260
2018-06-12T09:41:34.231Z,260
2018-06-12T09:42:34.224Z,250
2018-06-12T09:43:34.478Z,230
2018-06-12T09:44:34.477Z,235
2018-06-12T09:45:34.470Z,225
2018-06-12T09:46:34.204Z,235
2018-06-12T09:47:34.462Z,240
2018-06-12T09:48:34.452Z,260
2018-06-12T09:49:34.255Z,295
2018-06-12T09:50:34.452Z,355
2018-06-12T09:51:34.195Z,410
2018-06-12T09:52:34.448Z,425
2018-06-12T09:53:34.183Z,450
2018-06-12T09:54:34.178Z,470
2018-06-12T09:55:34.177Z,425
2018-06-12T09:56:34.175Z,400
2018-06-12T09:57:34.421Z,410
2018-06-12T09:58:34.165Z,380
2018-06-12T09:59:34.173Z,355
2018-06-12T10:00:34.419Z,370
2018-06-12T10:01:33.900Z,400
2018-06-12T10:02:34.161Z,445
2018-06-12T10:03:34.150Z,465
2018-06-12T10:04:34.158Z,460
2018-06-12T10:05:33.883Z,410
2018-06-12T10:06:34.397Z,385
2018-06-12T10:07:34.410Z,400
2018-06-12T10:08:34.135Z,395
2018-06-12T10:09:34.129Z,390
2018-06-12T10:10:33.871Z,360
2018-06-12T10:11:34.125Z,345
2018-06-12T10:12:34.123Z,370
2018-06-12T10:13:34.123Z,345
2018-06-12T10:14:34.119Z,320
2018-06-12T10:15:33.857Z,325
2018-06-12T10:16:34.362Z,335
2018-06-12T10:17:34.363Z,350
2018-06-12T10:18:34.100Z,355
2018-06-12T10:19:34.099Z,345
2018-06-12T10:20:34.097Z,360
2018-06-12T10:21:34.111Z,360
2018-06-12T10:22:33.832Z,370
2018-06-12T10:23:34.100Z,390
2018-06-12T10:24:34.088Z,430
2018-06-12T10:25:33.823Z,480
2018-06-12T10:26:34.076Z,515
2018-06-12T10:27:34.087Z,560
2018-06-12T10:28:34.337Z,600
2018-06-12T10:29:34.073Z,650
2018-06-12T10:30:34.325Z,680
2018-06-12T10:31:33.805Z,660
2018-06-12T10:32:34.317Z,630
2018-06-12T10:33:34.316Z,600
2018-06-12T10:34:34.327Z,590
2018-06-12T10:35:33.798Z,585
2018-06-12T10:36:34.052Z,565
2018-06-12T10:37:34.693Z,520
2018-06-12T10:38:34.053Z,510
2018-06-12T10:39:34.301Z,550
2018-06-12T10:40:33.793Z,590
2018-06-12T10:41:34.300Z,655
2018-06-12T10:42:34.302Z,670
2018-06-12T10:43:34.331Z,700
2018-06-12T10:44:34.052Z,695
2018-06-12T10:45:34.294Z,650
2018-06-12T10:46:34.059Z,625
2018-06-12T10:47:34.289Z,625
2018-06-12T10:48:34.025Z,665
2018-06-12T10:49:33.778Z,650
2018-06-12T10:50:33.769Z,635
2018-06-12T10:51:34.029Z,660
2018-06-12T10:52:34.286Z,685
2018-06-12T10:53:34.023Z,665
2018-06-12T10:54:34.026Z,665
2018-06-12T10:55:33.767Z,665
2018-06-12T10:56:34.178Z,675
2018-06-12T10:57:34.073Z,700
2018-06-12T10:58:34.281Z,715
2018-06-12T10:59:33.761Z,730
2018-06-12T11:00:34.273Z,725
2018-06-12T11:01:34.267Z,660
2018-06-12T11:02:34.016Z,570
2018-06-12T11:03:34.079Z,515
2018-06-12T11:04:34.271Z,515
2018-06-12T11:05:34.013Z,555
2018-06-12T11:06:33.756Z,610
2018-06-12T11:07:34.264Z,660
2018-06-12T11:08:34.009Z,705
2018-06-12T11:09:34.010Z,700
2018-06-12T11:10:34.007Z,660
2018-06-12T11:11:34.266Z,600
2018-06-12T11:12:33.750Z,580
2018-06-12T11:13:34.267Z,595
2018-06-12T11:14:34.012Z,600
2018-06-12T11:15:34.266Z,605
2018-06-12T11:16:34.262Z,605
2018-06-12T11:17:34.007Z,600
2018-06-12T11:18:34.003Z,625
2018-06-12T11:19:34.256Z,630
2018-06-12T11:20:33.746Z,605
2018-06-12T11:21:34.258Z,570
2018-06-12T11:22:34.270Z,565
2018-06-12T11:23:33.744Z,570
2018-06-12T11:24:33.749Z,590
2018-06-12T11:25:34.008Z,600
2018-06-12T11:26:34.254Z,645
2018-06-12T11:27:34.000Z,670
2018-06-12T11:28:34.267Z,685
2018-06-12T11:29:33.743Z,675
2018-06-12T11:30:33.746Z,670
2018-06-12T11:31:34.005Z,680
2018-06-12T11:32:34.003Z,700
2018-06-12T11:33:34.001Z,715
2018-06-12T11:34:33.750Z,700
2018-06-12T11:35:34.005Z,680
2018-06-12T11:36:33.491Z,685
2018-06-12T11:37:34.011Z,670
2018-06-12T11:38:34.269Z,610
2018-06-12T11:39:34.003Z,565
2018-06-12T11:40:33.745Z,535
2018-06-12T11:41:33.744Z,520
2018-06-12T11:42:34.006Z,545
2018-06-12T11:43:34.261Z,580
2018-06-12T11:44:34.005Z,590
2018-06-12T11:45:34.000Z,570
2018-06-12T11:46:34.261Z,520
2018-06-12T11:47:34.268Z,450
2018-06-12T11:48:34.263Z,380
2018-06-12T11:49:33.751Z,330
2018-06-12T11:50:34.013Z,305
2018-06-12T11:51:34.006Z,295
2018-06-12T11:52:34.263Z,290
2018-06-12T11:53:34.006Z,280
2018-06-12T11:54:34.003Z,280
2018-06-12T11:55:34.004Z,285
2018-06-12T11:56:34.004Z,285
2018-06-12T11:57:34.265Z,290
2018-06-12T11:58:33.998Z,300
2018-06-12T11:59:34.002Z,285
2018-06-12T12:00:33.747Z,270
2018-06-12T12:01:34.261Z,280
2018-06-12T12:02:34.263Z,300
2018-06-12T12:03:34.261Z,340
2018-06-12T12:04:34.259Z,375
2018-06-12T12:05:34.012Z,400
2018-06-12T12:06:34.002Z,405
2018-06-12T12:07:33.997Z,405
2018-06-12T12:08:33.738Z,410
2018-06-12T12:09:33.735Z,415
2018-06-12T12:10:34.004Z,405
2018-06-12T12:11:34.042Z,380
2018-06-12T12:12:34.078Z,355
2018-06-12T12:13:34.254Z,320
2018-06-12T12:14:34.005Z,295
2018-06-12T12:15:33.996Z,305
2018-06-12T12:16:34.257Z,335
2018-06-12T12:17:33.981Z,365
2018-06-12T12:18:33.987Z,365
2018-06-12T12:19:33.729Z,345
2018-06-12T12:20:34.033Z,315
2018-06-12T12:21:34.013Z,290
2018-06-12T12:22:33.987Z,275
2018-06-12T12:23:34.330Z,265
2018-06-12T12:24:34.235Z,265
2018-06-12T12:25:34.236Z,265
2018-06-12T12:26:34.241Z,275
2018-06-12T12:27:34.234Z,290
2018-06-12T12:28:34.332Z,310
2018-06-12T12:29:34.234Z,330
2018-06-12T12:30:33.971Z,350
2018-06-12T12:31:33.979Z,375
2018-06-12T12:32:34.228Z,425
2018-06-12T12:33:34.222Z,450
2018-06-12T12:34:34.229Z,470
2018-06-12T12:35:34.219Z,495
2018-06-12T12:36:34.221Z,510
2018-06-12T12:37:33.708Z,505
2018-06-12T12:38:33.963Z,475
2018-06-12T12:39:33.957Z,440
2018-06-12T12:40:33.711Z,415
2018-06-12T12:41:34.215Z,400
2018-06-12T12:42:33.952Z,380
2018-06-12T12:43:34.239Z,360
2018-06-12T12:44:33.958Z,350
2018-06-12T12:45:33.702Z,345
2018-06-12T12:46:33.702Z,355
2018-06-12T12:47:34.249Z,375
2018-06-12T12:48:34.368Z,405
2018-06-12T12:49:33.952Z,445
2018-06-12T12:50:33.945Z,470
2018-06-12T12:51:33.945Z,465
2018-06-12T12:52:34.151Z,430
2018-06-12T12:53:34.211Z,400
2018-06-12T12:54:33.948Z,390
2018-06-12T12:55:34.193Z,375
2018-06-12T12:56:33.942Z,365
2018-06-12T12:57:33.940Z,370
2018-06-12T12:58:34.197Z,370
2018-06-12T12:59:33.679Z,370
2018-06-12T13:00:33.936Z,365
2018-06-12T13:01:33.928Z,365
2018-06-12T13:02:33.935Z,345
2018-06-12T13:03:34.187Z,345
2018-06-12T13:04:34.184Z,360
2018-06-12T13:05:34.187Z,380
2018-06-12T13:06:34.234Z,410
2018-06-12T13:07:34.181Z,430
2018-06-12T13:08:34.200Z,430
2018-06-12T13:09:34.180Z,425
2018-06-12T13:10:34.178Z,395
2018-06-12T13:11:33.919Z,340
2018-06-12T13:12:34.224Z,335
2018-06-12T13:13:34.173Z,350
2018-06-12T13:14:33.911Z,370
2018-06-12T13:15:33.919Z,380
2018-06-12T13:16:33.395Z,375
2018-06-12T13:17:33.905Z,370
2018-06-12T13:18:33.907Z,380
2018-06-12T13:19:33.906Z,370
2018-06-12T13:20:34.178Z,325
2018-06-12T13:21:33.902Z,310
2018-06-12T13:22:34.162Z,305
2018-06-12T13:23:34.165Z,305
2018-06-12T13:24:33.640Z,305
2018-06-12T13:25:34.158Z,285
2018-06-12T13:26:33.652Z,265
2018-06-12T13:27:33.646Z,245
2018-06-12T13:28:33.893Z,220
2018-06-12T13:29:33.895Z,195
2018-06-12T13:30:34.145Z,185
2018-06-12T13:31:33.628Z,175
2018-06-12T13:32:33.887Z,165
2018-06-12T13:33:34.068Z,165
2018-06-12T13:34:34.156Z,170
2018-06-12T13:35:34.138Z,195
2018-06-12T13:36:34.138Z,230
2018-06-12T13:37:34.135Z,250
2018-06-12T13:38:34.133Z,275
2018-06-12T13:39:33.876Z,285
2018-06-12T13:40:34.128Z,260
2018-06-12T13:41:33.869Z,240
2018-06-12T13:42:33.865Z,230
2018-06-12T13:43:33.862Z,235
2018-06-12T13:44:33.865Z,265
2018-06-12T13:45:33.866Z,305
2018-06-12T13:46:34.232Z,315
2018-06-12T13:47:33.872Z,300
2018-06-12T13:48:33.851Z,265
2018-06-12T13:49:33.853Z,270
2018-06-12T13:50:34.114Z,295
2018-06-12T13:51:33.841Z,270
2018-06-12T13:52:34.099Z,250
2018-06-12T13:53:34.093Z,230
2018-06-12T13:54:33.834Z,255
2018-06-12T13:55:34.096Z,275
2018-06-12T13:56:33.831Z,255
2018-06-12T13:57:34.111Z,240
2018-06-12T13:58:33.830Z,265
2018-06-12T13:59:33.569Z,285
2018-06-12T14:00:33.567Z,285
2018-06-12T14:01:33.829Z,280
2018-06-12T14:02:33.825Z,275
2018-06-12T14:03:33.818Z,285
2018-06-12T14:04:33.822Z,295
2018-06-12T14:05:33.555Z,335